createdAt,value
2019-03-26T00:00:45.168Z,2.01
2019-03-26T00:03:17.768Z,1.97
2019-03-26T00:05:51.738Z,1.95
2019-03-26T00:08:24.468Z,1.91
2019-03-26T00:10:57.008Z,1.89
2019-03-26T00:13:29.730Z,1.85
2019-03-26T00:16:02.333Z,1.83
2019-03-26T00:18:34.918Z,1.82
2019-03-26T00:21:07.404Z,1.82
2019-03-26T00:23:39.891Z,1.82
2019-03-26T00:26:12.308Z,1.82
2019-03-26T00:28:44.774Z,1.83
2019-03-26T00:31:17.448Z,1.81
2019-03-26T00:33:50.084Z,1.81
2019-03-26T00:36:22.648Z,1.81
2019-03-26T00:38:55.129Z,1.81
2019-03-26T00:41:27.609Z,1.80
2019-03-26T00:44:00.258Z,1.80
2019-03-26T00:46:33.119Z,1.81
2019-03-26T00:49:05.599Z,1.79
2019-03-26T00:51:38.040Z,1.79
2019-03-26T00:54:10.939Z,1.78
2019-03-26T00:56:43.322Z,1.77
2019-03-26T00:59:15.798Z,1.76
2019-03-26T01:01:49.380Z,1.73
2019-03-26T01:04:32.175Z,1.69
2019-03-26T01:06:56.034Z,1.62
2019-03-26T01:09:28.753Z,1.58
2019-03-26T01:12:01.225Z,1.55
2019-03-26T01:14:33.748Z,1.56
2019-03-26T01:17:06.395Z,1.59
2019-03-26T01:19:39.005Z,1.64
2019-03-26T01:22:11.585Z,1.69
2019-03-26T01:24:44.105Z,1.71
2019-03-26T01:27:16.835Z,1.70
2019-03-26T01:29:49.325Z,1.69
2019-03-26T01:32:23.228Z,1.66
2019-03-26T01:34:55.946Z,1.60
2019-03-26T01:37:28.523Z,1.56
2019-03-26T01:40:01.214Z,1.54
2019-03-26T01:42:33.898Z,1.53
2019-03-26T01:45:07.208Z,1.54
2019-03-26T01:47:39.743Z,1.54
2019-03-26T01:50:12.446Z,1.55
2019-03-26T01:52:44.894Z,1.58
2019-03-26T01:55:17.583Z,1.58
2019-03-26T01:57:51.169Z,1.53
2019-03-26T02:00:23.733Z,1.49
2019-03-26T02:02:57.397Z,1.52
2019-03-26T02:05:30.125Z,1.54
2019-03-26T02:08:02.655Z,1.50
2019-03-26T02:10:35.355Z,1.48
2019-03-26T02:13:07.986Z,1.48
2019-03-26T02:15:40.565Z,1.51
2019-03-26T02:18:13.173Z,1.53
2019-03-26T02:20:45.685Z,1.51
2019-03-26T02:23:18.254Z,1.46
2019-03-26T02:25:50.775Z,1.44
2019-03-26T02:28:23.925Z,1.40
2019-03-26T02:30:56.561Z,1.39
2019-03-26T02:33:29.109Z,1.38
2019-03-26T02:36:02.608Z,1.37
2019-03-26T02:38:35.166Z,1.38
2019-03-26T02:41:07.816Z,1.38
2019-03-26T02:43:40.487Z,1.39
2019-03-26T02:46:13.706Z,1.40
2019-03-26T02:48:46.249Z,1.39
2019-03-26T02:51:18.950Z,1.40
2019-03-26T02:53:51.523Z,1.36
2019-03-26T02:56:24.035Z,1.36
2019-03-26T02:58:56.802Z,1.34
2019-03-26T03:01:30.395Z,1.33
2019-03-26T03:04:02.905Z,1.33
2019-03-26T03:06:35.407Z,1.33
2019-03-26T03:09:08.236Z,1.32
2019-03-26T03:11:40.785Z,1.28
2019-03-26T03:14:13.327Z,1.25
2019-03-26T03:16:45.836Z,1.27
2019-03-26T03:19:18.405Z,1.27
2019-03-26T03:21:50.873Z,1.28
2019-03-26T03:24:23.555Z,1.35
2019-03-26T03:26:56.256Z,1.43
2019-03-26T03:29:28.814Z,1.53
2019-03-26T03:32:01.276Z,1.63
2019-03-26T03:34:33.734Z,1.72
2019-03-26T03:37:06.373Z,1.78
2019-03-26T03:39:38.799Z,1.84
2019-03-26T03:42:11.346Z,1.90
2019-03-26T03:44:43.840Z,1.93
2019-03-26T03:47:18.537Z,1.97
2019-03-26T03:49:51.250Z,1.99
2019-03-26T03:52:24.990Z,1.98
2019-03-26T03:54:57.627Z,2.02
2019-03-26T03:57:32.787Z,2.04
2019-03-26T04:00:05.997Z,2.03
2019-03-26T04:02:38.576Z,2.06
2019-03-26T04:05:11.442Z,2.11
2019-03-26T04:07:43.905Z,2.12
2019-03-26T04:10:16.757Z,2.13
2019-03-26T04:12:49.386Z,2.12
2019-03-26T04:15:21.812Z,2.13
2019-03-26T04:17:54.365Z,2.13
2019-03-26T04:20:26.896Z,2.17
2019-03-26T04:23:00.206Z,2.16
2019-03-26T04:25:32.789Z,2.20
2019-03-26T04:28:05.343Z,2.17
2019-03-26T04:30:38.014Z,2.19
2019-03-26T04:33:10.510Z,2.19
2019-03-26T04:35:43.042Z,2.21
2019-03-26T04:38:15.726Z,2.19
2019-03-26T04:40:48.146Z,2.20
2019-03-26T04:43:20.696Z,2.20
2019-03-26T04:45:53.365Z,2.22
2019-03-26T04:48:26.133Z,2.23
2019-03-26T04:50:58.715Z,2.25
2019-03-26T04:53:34.101Z,2.26
2019-03-26T04:56:05.906Z,2.28
2019-03-26T04:58:38.505Z,2.31
2019-03-26T05:01:11.055Z,2.31
2019-03-26T05:03:43.785Z,2.32
2019-03-26T05:06:16.379Z,2.36
2019-03-26T05:08:48.907Z,2.40
2019-03-26T05:11:21.405Z,2.41
2019-03-26T05:13:53.965Z,2.46
2019-03-26T05:16:26.556Z,2.51
2019-03-26T05:18:59.175Z,2.53
2019-03-26T05:21:31.565Z,2.58
2019-03-26T05:24:04.285Z,2.59
2019-03-26T05:26:36.817Z,2.64
2019-03-26T05:29:09.385Z,2.65
2019-03-26T05:31:41.894Z,2.68
2019-03-26T05:34:14.719Z,2.74
2019-03-26T05:36:51.629Z,2.74
2019-03-26T05:39:21.805Z,2.81
2019-03-26T05:41:54.565Z,2.84
2019-03-26T05:44:27.077Z,2.92
2019-03-26T05:47:01.719Z,2.97
2019-03-26T05:49:33.887Z,3.01
2019-03-26T05:52:06.555Z,3.04
2019-03-26T05:54:39.173Z,3.07
2019-03-26T05:57:11.684Z,3.07
2019-03-26T05:59:44.373Z,3.06
2019-03-26T06:02:18.140Z,3.08
2019-03-26T06:04:51.003Z,3.09
2019-03-26T06:07:23.595Z,3.16
2019-03-26T06:09:56.165Z,3.21
2019-03-26T06:12:28.775Z,3.23
2019-03-26T06:15:01.551Z,3.25
2019-03-26T06:17:34.053Z,3.25
2019-03-26T06:20:07.384Z,3.28
2019-03-26T06:22:39.895Z,3.35
2019-03-26T06:25:13.278Z,3.37
2019-03-26T06:27:46.008Z,3.42
2019-03-26T06:30:19.823Z,3.43
2019-03-26T06:32:53.474Z,3.39
2019-03-26T06:35:26.129Z,3.39
2019-03-26T06:37:58.646Z,3.39
2019-03-26T06:40:31.205Z,3.39
2019-03-26T06:43:03.785Z,3.52
2019-03-26T06:45:36.533Z,3.83
2019-03-26T06:48:09.078Z,4.23
2019-03-26T06:50:41.660Z,4.59
2019-03-26T06:53:14.147Z,5.05
2019-03-26T06:55:46.806Z,5.28
2019-03-26T06:58:19.286Z,5.13
2019-03-26T07:00:53.146Z,4.77
2019-03-26T07:03:25.835Z,4.48
2019-03-26T07:05:58.516Z,4.28
2019-03-26T07:08:31.015Z,4.21
2019-03-26T07:11:03.707Z,4.21
2019-03-26T07:13:36.487Z,4.18
2019-03-26T07:16:09.195Z,4.26
2019-03-26T07:18:41.790Z,4.44
2019-03-26T07:21:14.775Z,4.55
2019-03-26T07:23:47.246Z,4.52
2019-03-26T07:26:19.825Z,4.71
2019-03-26T07:28:52.367Z,4.71
2019-03-26T07:31:25.329Z,4.58
2019-03-26T07:33:57.765Z,4.49
2019-03-26T07:36:30.567Z,4.47
2019-03-26T07:39:04.965Z,4.58
2019-03-26T07:41:37.545Z,4.59
2019-03-26T07:44:10.258Z,4.72
2019-03-26T07:46:42.896Z,4.61
2019-03-26T07:49:15.501Z,4.69
2019-03-26T07:51:48.090Z,4.90
2019-03-26T07:54:22.245Z,4.95
2019-03-26T07:56:55.055Z,5.03
2019-03-26T07:59:27.675Z,5.29
2019-03-26T08:02:00.371Z,5.23
2019-03-26T08:04:33.106Z,5.59
2019-03-26T08:07:05.958Z,5.99
2019-03-26T08:09:38.739Z,6.12
2019-03-26T08:12:11.306Z,6.60
2019-03-26T08:14:46.893Z,6.43
2019-03-26T08:17:19.353Z,6.11
2019-03-26T08:19:51.939Z,6.14
2019-03-26T08:22:24.547Z,6.44
2019-03-26T08:24:57.026Z,6.54
2019-03-26T08:27:30.006Z,6.72
2019-03-26T08:30:03.179Z,6.95
2019-03-26T08:32:37.287Z,6.79
2019-03-26T08:35:11.285Z,6.93
2019-03-26T08:37:43.828Z,7.46
2019-03-26T08:40:17.843Z,7.31
2019-03-26T08:42:51.505Z,7.36
2019-03-26T08:45:24.183Z,7.73
2019-03-26T08:47:56.816Z,7.80
2019-03-26T08:50:29.286Z,8.46
2019-03-26T08:53:01.833Z,9.12
2019-03-26T08:55:34.834Z,9.48
2019-03-26T08:58:07.514Z,9.50
2019-03-26T09:00:40.327Z,9.88
2019-03-26T09:03:12.866Z,9.86
2019-03-26T09:05:45.915Z,10.02
2019-03-26T09:08:25.312Z,9.84
2019-03-26T09:10:53.275Z,9.63
2019-03-26T09:13:26.003Z,9.57
2019-03-26T09:15:58.894Z,9.62
2019-03-26T09:18:31.554Z,9.73
2019-03-26T09:21:04.084Z,9.86
2019-03-26T09:23:36.888Z,10.26
2019-03-26T09:26:09.484Z,9.63
2019-03-26T09:28:42.067Z,8.99
2019-03-26T09:31:14.829Z,8.86
2019-03-26T09:33:48.296Z,8.59
2019-03-26T09:36:20.956Z,8.85
2019-03-26T09:38:53.576Z,9.19
2019-03-26T09:41:26.327Z,9.20
2019-03-26T09:43:58.950Z,8.96
2019-03-26T09:46:31.469Z,8.79
2019-03-26T09:49:04.007Z,8.87
2019-03-26T09:51:36.571Z,9.17
2019-03-26T09:54:09.246Z,9.17
2019-03-26T09:56:45.508Z,9.23
2019-03-26T09:59:18.176Z,9.26
2019-03-26T10:01:53.716Z,9.21
2019-03-26T10:04:26.398Z,8.92
2019-03-26T10:06:59.201Z,8.83
2019-03-26T10:09:31.908Z,8.82
2019-03-26T10:12:04.797Z,8.60
2019-03-26T10:14:37.408Z,8.70
2019-03-26T10:17:10.008Z,8.69
2019-03-26T10:19:42.836Z,8.63
2019-03-26T10:22:15.386Z,8.44
2019-03-26T10:24:48.046Z,8.46
2019-03-26T10:27:20.726Z,8.57
2019-03-26T10:29:53.786Z,8.34
2019-03-26T10:32:26.616Z,8.17
2019-03-26T10:34:59.156Z,8.22
2019-03-26T10:37:31.647Z,8.45
2019-03-26T10:40:04.336Z,8.48
2019-03-26T10:42:37.096Z,8.72
2019-03-26T10:45:10.419Z,9.19
2019-03-26T10:47:42.994Z,10.38
2019-03-26T10:50:15.576Z,10.24
2019-03-26T10:52:48.126Z,9.66
2019-03-26T10:55:20.986Z,9.72
2019-03-26T10:57:53.566Z,10.56
2019-03-26T11:00:26.676Z,11.25
2019-03-26T11:02:59.306Z,10.53
2019-03-26T11:05:31.899Z,9.74
2019-03-26T11:08:04.558Z,9.15
2019-03-26T11:10:37.226Z,9.42
2019-03-26T11:13:09.697Z,9.24
2019-03-26T11:15:42.310Z,8.97
2019-03-26T11:18:15.044Z,8.88
2019-03-26T11:21:01.352Z,8.69
2019-03-26T11:23:21.861Z,8.97
2019-03-26T11:25:54.561Z,8.91
2019-03-26T11:28:27.306Z,9.90
2019-03-26T11:30:59.916Z,9.36
2019-03-26T11:33:32.644Z,9.29
2019-03-26T11:36:05.356Z,9.55
2019-03-26T11:38:37.877Z,9.02
2019-03-26T11:41:10.747Z,9.14
2019-03-26T11:43:43.518Z,9.32
2019-03-26T11:46:16.084Z,8.97
2019-03-26T11:48:49.165Z,8.65
2019-03-26T11:51:21.668Z,8.28
2019-03-26T11:53:54.334Z,8.06
2019-03-26T11:56:27.062Z,7.97
2019-03-26T11:58:59.526Z,8.37
2019-03-26T12:01:32.136Z,8.80
2019-03-26T12:04:05.147Z,8.81
2019-03-26T12:06:37.906Z,8.68
2019-03-26T12:09:10.791Z,8.51
2019-03-26T12:11:43.497Z,8.22
2019-03-26T12:14:15.968Z,8.01
2019-03-26T12:16:48.736Z,7.75
2019-03-26T12:19:21.324Z,7.58
2019-03-26T12:21:53.794Z,7.52
2019-03-26T12:24:26.277Z,7.46
2019-03-26T12:26:59.088Z,7.46
2019-03-26T12:29:31.716Z,7.53
2019-03-26T12:32:04.300Z,7.54
2019-03-26T12:34:37.168Z,7.59
2019-03-26T12:37:09.965Z,7.66
2019-03-26T12:39:44.237Z,7.66
2019-03-26T12:42:17.918Z,7.55
2019-03-26T12:44:50.554Z,7.43
2019-03-26T12:47:23.414Z,7.35
2019-03-26T12:49:55.956Z,7.33
2019-03-26T12:52:28.547Z,7.40
2019-03-26T12:55:01.146Z,7.54
2019-03-26T12:57:33.675Z,8.02
2019-03-26T13:00:08.418Z,8.77
2019-03-26T13:02:41.258Z,8.86
2019-03-26T13:05:15.108Z,8.41
2019-03-26T13:07:47.726Z,8.32
2019-03-26T13:10:20.446Z,8.30
2019-03-26T13:12:53.225Z,8.10
2019-03-26T13:15:25.826Z,7.96
2019-03-26T13:17:58.376Z,7.72
2019-03-26T13:20:32.066Z,7.54
2019-03-26T13:23:04.867Z,7.50
2019-03-26T13:25:37.446Z,7.69
2019-03-26T13:28:10.106Z,7.71
2019-03-26T13:30:42.616Z,7.66
2019-03-26T13:33:15.306Z,7.60
2019-03-26T13:35:47.896Z,7.51
2019-03-26T13:38:20.687Z,7.49
2019-03-26T13:40:53.488Z,7.36
2019-03-26T13:43:25.996Z,7.34
2019-03-26T13:45:59.746Z,7.37
2019-03-26T13:48:32.346Z,7.41
2019-03-26T13:51:05.092Z,7.52
2019-03-26T13:53:37.630Z,7.70
2019-03-26T13:56:10.276Z,7.59
2019-03-26T13:58:43.206Z,7.57
2019-03-26T14:01:16.038Z,7.29
2019-03-26T14:03:48.816Z,7.03
2019-03-26T14:06:21.446Z,6.64
2019-03-26T14:08:54.071Z,6.33
2019-03-26T14:11:26.647Z,6.20
2019-03-26T14:13:59.267Z,6.12
2019-03-26T14:16:32.066Z,6.21
2019-03-26T14:19:04.816Z,6.79
2019-03-26T14:21:37.334Z,7.19
2019-03-26T14:24:13.173Z,7.41
2019-03-26T14:26:44.335Z,7.63
2019-03-26T14:29:17.276Z,7.36
2019-03-26T14:31:49.996Z,7.05
2019-03-26T14:34:22.832Z,7.04
2019-03-26T14:36:55.334Z,7.02
2019-03-26T14:39:27.828Z,6.90
2019-03-26T14:42:00.534Z,6.83
2019-03-26T14:44:34.164Z,6.77
2019-03-26T14:47:06.603Z,7.00
2019-03-26T14:49:40.156Z,7.06
2019-03-26T14:52:12.597Z,6.87
2019-03-26T14:54:45.185Z,6.68
2019-03-26T14:57:17.866Z,6.54
2019-03-26T14:59:51.266Z,6.46
2019-03-26T15:02:23.926Z,6.39
2019-03-26T15:04:56.673Z,6.00
2019-03-26T15:07:29.236Z,5.59
2019-03-26T15:10:01.776Z,5.19
2019-03-26T15:12:34.506Z,5.16
2019-03-26T15:15:08.468Z,5.24
2019-03-26T15:17:42.006Z,5.24
2019-03-26T15:20:14.878Z,4.87
2019-03-26T15:22:47.366Z,4.57
2019-03-26T15:25:19.996Z,4.39
2019-03-26T15:27:52.569Z,4.27
2019-03-26T15:30:25.306Z,4.26
2019-03-26T15:32:58.952Z,4.28
2019-03-26T15:35:31.669Z,4.32
2019-03-26T15:38:04.323Z,4.31
2019-03-26T15:40:37.046Z,4.31
2019-03-26T15:43:09.685Z,4.23
2019-03-26T15:45:42.313Z,4.03
2019-03-26T15:48:14.856Z,3.76
2019-03-26T15:50:48.386Z,3.32
2019-03-26T15:53:21.026Z,2.95
2019-03-26T15:55:53.706Z,2.54
2019-03-26T15:58:26.316Z,2.33
2019-03-26T16:00:59.107Z,2.22
2019-03-26T16:03:31.727Z,2.21
2019-03-26T16:06:04.516Z,2.25
2019-03-26T16:08:37.277Z,2.33
2019-03-26T16:11:09.976Z,2.41
2019-03-26T16:13:42.608Z,2.48
2019-03-26T16:16:15.306Z,2.53
2019-03-26T16:18:47.876Z,2.56
2019-03-26T16:21:20.728Z,2.61
2019-03-26T16:23:53.265Z,2.65
2019-03-26T16:26:25.785Z,2.69
2019-03-26T16:28:58.286Z,2.80
2019-03-26T16:31:30.846Z,2.75
2019-03-26T16:34:03.578Z,2.30
2019-03-26T16:36:36.538Z,1.79
2019-03-26T16:39:09.556Z,1.55
2019-03-26T16:41:48.857Z,1.42
2019-03-26T16:44:16.690Z,1.35
2019-03-26T16:46:49.228Z,1.37
2019-03-26T16:49:21.906Z,1.42
2019-03-26T16:51:54.734Z,1.40
2019-03-26T16:54:27.436Z,1.38
2019-03-26T16:57:00.046Z,1.41
2019-03-26T16:59:32.781Z,1.45
2019-03-26T17:02:05.486Z,1.42
2019-03-26T17:04:38.068Z,1.42
2019-03-26T17:07:10.777Z,1.40
2019-03-26T17:09:43.286Z,1.37
2019-03-26T17:12:17.889Z,1.39
2019-03-26T17:14:50.446Z,1.41
2019-03-26T17:17:30.466Z,1.44
2019-03-26T17:20:03.325Z,1.42
2019-03-26T17:22:37.296Z,1.43
2019-03-26T17:25:10.310Z,1.42
2019-03-26T17:27:42.830Z,1.46
2019-03-26T17:30:15.736Z,1.48
2019-03-26T17:32:48.476Z,1.50
2019-03-26T17:35:21.267Z,1.50
2019-03-26T17:38:00.101Z,1.53
2019-03-26T17:40:28.347Z,1.53
2019-03-26T17:43:01.098Z,1.55
2019-03-26T17:45:34.505Z,1.55
2019-03-26T17:48:07.186Z,1.56
2019-03-26T17:50:39.765Z,1.56
2019-03-26T17:53:13.416Z,1.58
2019-03-26T17:55:46.968Z,1.58
2019-03-26T17:58:19.727Z,1.56
2019-03-26T18:00:52.685Z,1.61
2019-03-26T18:03:26.883Z,1.61
2019-03-26T18:05:59.816Z,1.61
2019-03-26T18:08:32.669Z,1.59
2019-03-26T18:11:05.154Z,1.57
2019-03-26T18:13:37.846Z,1.59
2019-03-26T18:16:10.346Z,1.59
2019-03-26T18:18:43.006Z,1.58
2019-03-26T18:21:15.696Z,1.58
2019-03-26T18:23:48.406Z,1.59
2019-03-26T18:26:21.235Z,1.57
2019-03-26T18:28:55.423Z,1.56
2019-03-26T18:31:28.174Z,1.57
2019-03-26T18:34:00.716Z,1.56
2019-03-26T18:36:33.485Z,1.55
2019-03-26T18:39:09.259Z,1.57
2019-03-26T18:41:42.994Z,1.55
2019-03-26T18:44:16.294Z,1.55
2019-03-26T18:46:53.126Z,1.56
2019-03-26T18:49:29.976Z,1.54
2019-03-26T18:52:02.796Z,1.50
2019-03-26T18:54:36.110Z,1.50
2019-03-26T18:57:09.894Z,1.49
2019-03-26T18:59:42.937Z,1.47
2019-03-26T19:02:17.009Z,1.46
2019-03-26T19:04:49.934Z,1.43
2019-03-26T19:07:24.596Z,1.39
2019-03-26T19:10:00.363Z,1.35
2019-03-26T19:12:33.434Z,1.30
2019-03-26T19:15:07.425Z,1.28
2019-03-26T19:17:40.494Z,1.25
2019-03-26T19:20:15.816Z,1.24
2019-03-26T19:22:48.914Z,1.23
2019-03-26T19:25:23.107Z,1.21
2019-03-26T19:27:56.368Z,1.21
2019-03-26T19:30:29.267Z,1.22
2019-03-26T19:33:02.144Z,1.20
2019-03-26T19:35:35.216Z,1.19
2019-03-26T19:38:08.361Z,1.19
2019-03-26T19:40:41.357Z,1.18
2019-03-26T19:43:14.286Z,1.18
2019-03-26T19:45:48.393Z,1.17
2019-03-26T19:48:21.247Z,1.21
2019-03-26T19:50:53.963Z,1.20
2019-03-26T19:53:26.635Z,1.20
2019-03-26T19:55:59.936Z,1.18
2019-03-26T19:58:32.505Z,1.12
2019-03-26T20:01:05.367Z,1.10
2019-03-26T20:03:38.177Z,1.13
2019-03-26T20:06:13.621Z,1.09
2019-03-26T20:08:45.504Z,1.12
2019-03-26T20:11:18.487Z,1.08
2019-03-26T20:13:52.204Z,1.03
2019-03-26T20:16:27.330Z,1.01
2019-03-26T20:19:00.717Z,0.95
2019-03-26T20:21:34.122Z,0.91
2019-03-26T20:24:07.184Z,0.88
2019-03-26T20:26:39.956Z,0.87
2019-03-26T20:29:12.887Z,0.83
2019-03-26T20:31:45.691Z,0.79
2019-03-26T20:34:18.645Z,0.78
2019-03-26T20:36:51.413Z,0.76
2019-03-26T20:39:25.146Z,0.76
2019-03-26T20:41:58.639Z,0.74
2019-03-26T20:44:31.537Z,0.76
2019-03-26T20:47:04.204Z,0.77
2019-03-26T20:49:36.865Z,0.77
2019-03-26T20:52:09.787Z,0.77
2019-03-26T20:54:42.496Z,0.79
2019-03-26T20:57:15.793Z,0.74
2019-03-26T20:59:48.894Z,0.73
2019-03-26T21:02:21.776Z,0.70
2019-03-26T21:04:54.438Z,0.70
2019-03-26T21:07:27.086Z,0.70
2019-03-26T21:09:59.824Z,0.68
2019-03-26T21:12:32.446Z,0.70
2019-03-26T21:15:05.427Z,0.68
2019-03-26T21:17:38.727Z,0.65
2019-03-26T21:20:11.667Z,0.56
2019-03-26T21:22:44.275Z,0.63
2019-03-26T21:25:17.306Z,0.57
2019-03-26T21:27:50.050Z,0.53
2019-03-26T21:30:22.876Z,0.48
2019-03-26T21:32:55.973Z,0.46
2019-03-26T21:35:29.187Z,0.45
2019-03-26T21:38:02.025Z,0.46
2019-03-26T21:40:35.274Z,0.43
2019-03-26T21:43:07.895Z,0.40
2019-03-26T21:45:41.803Z,0.37
2019-03-26T21:48:15.339Z,0.35
2019-03-26T21:50:47.946Z,0.33
2019-03-26T21:53:20.697Z,0.33
2019-03-26T21:56:05.887Z,0.33
2019-03-26T21:58:27.596Z,0.32
2019-03-26T22:01:00.376Z,0.31
2019-03-26T22:03:33.048Z,0.29
2019-03-26T22:06:05.896Z,0.31
2019-03-26T22:08:38.406Z,0.28
2019-03-26T22:11:11.056Z,0.29
2019-03-26T22:17:23.225Z,0.26
2019-03-26T22:19:56.746Z,0.23
2019-03-26T22:22:29.516Z,0.22
2019-03-26T22:25:02.136Z,0.18
2019-03-26T22:27:34.829Z,0.15
2019-03-26T22:30:07.965Z,0.14
2019-03-26T22:32:40.807Z,0.14
2019-03-26T22:35:13.436Z,0.13
2019-03-26T22:37:46.080Z,0.10
2019-03-26T22:40:18.835Z,0.05
2019-03-26T22:42:52.066Z,0.03
2019-03-26T22:45:25.099Z,0.01
2019-03-26T22:47:57.946Z,0.00
2019-03-26T22:50:30.876Z,-0.02
2019-03-26T22:53:03.556Z,-0.03
2019-03-26T22:55:36.158Z,-0.04
2019-03-26T22:58:08.999Z,-0.04
2019-03-26T23:00:42.325Z,-0.08
2019-03-26T23:03:16.518Z,-0.09
2019-03-26T23:05:49.546Z,-0.13
2019-03-26T23:08:22.186Z,-0.15
2019-03-26T23:10:54.876Z,-0.15
2019-03-26T23:13:27.876Z,-0.18
2019-03-26T23:16:00.707Z,-0.23
2019-03-26T23:18:33.608Z,-0.23
2019-03-26T23:21:06.546Z,-0.26
2019-03-26T23:23:39.197Z,-0.27
2019-03-26T23:26:11.907Z,-0.30
2019-03-26T23:28:44.593Z,-0.31
2019-03-26T23:31:17.308Z,-0.33
2019-03-26T23:33:49.980Z,-0.35
2019-03-26T23:36:22.726Z,-0.39
2019-03-26T23:38:55.286Z,-0.42
2019-03-26T23:41:27.937Z,-0.43
2019-03-26T23:44:00.627Z,-0.43
2019-03-26T23:46:33.135Z,-0.45
2019-03-26T23:49:05.746Z,-0.44
2019-03-26T23:51:38.227Z,-0.46
2019-03-26T23:54:10.896Z,-0.50
2019-03-26T23:56:43.816Z,-0.51
2019-03-26T23:59:16.407Z,-0.53
